Time;durP1;ratioP1;P1;durP2;ratioP2;P2;SDS_P1;SDS_P2;PMS_P1;PMS_P2;Temp;Humidity;BMP_temperature;BMP_pressure;BME280_temperature;BME280_humidity;BME280_pressure;Samples;Min_cycle;Max_cycle;Signal;HPM_P1;HPM_P2
2021/07/23 00:00:50;;;;;;;22.55;12.95;;;;;;;16.57;83.83;95668.56;5035910;28;20112;-77
2021/07/23 00:03:16;;;;;;;19.38;12.18;;;;;;;16.70;83.24;95672.25;5042663;28;20029;-78
2021/07/23 00:05:41;;;;;;;22.33;13.23;;;;;;;16.65;82.77;95675.81;5043653;28;20047;-77
2021/07/23 00:08:07;;;;;;;19.58;12.55;;;;;;;16.66;83.43;95677.38;5043265;28;20045;-76
2021/07/23 00:10:32;;;;;;;19.90;13.05;;;;;;;16.91;82.77;95688.47;5037009;28;20095;-77
2021/07/23 00:12:58;;;;;;;21.77;11.98;;;;;;;16.80;82.81;95683.38;5047834;28;20506;-78
2021/07/23 00:15:23;;;;;;;19.02;12.02;;;;;;;16.75;82.87;95675.56;5056507;28;20047;-77
2021/07/23 00:17:48;;;;;;;19.05;11.98;;;;;;;16.75;83.04;95680.88;5041329;28;20075;-76
2021/07/23 00:20:14;;;;;;;21.58;11.85;;;;;;;16.59;83.56;95671.72;5046666;28;20043;-77
2021/07/23 00:22:39;;;;;;;21.27;12.18;;;;;;;16.56;83.07;95672.31;5046408;28;20047;-78
2021/07/23 00:25:05;;;;;;;21.63;12.15;;;;;;;16.59;83.13;95671.72;5046552;28;20517;-77
2021/07/23 00:27:31;;;;;;;22.60;12.63;;;;;;;16.60;83.22;95673.28;5052427;28;20041;-77
2021/07/23 00:29:56;;;;;;;19.02;12.07;;;;;;;16.42;83.44;95667.88;5037343;28;20061;-76
2021/07/23 00:32:22;;;;;;;22.83;12.90;;;;;;;16.25;83.95;95665.09;5037351;28;20045;-77
2021/07/23 00:34:47;;;;;;;20.35;11.90;;;;;;;15.96;84.60;95671.59;5051492;28;20044;-77
2021/07/23 00:37:13;;;;;;;19.88;12.20;;;;;;;15.89;85.57;95671.22;5068163;28;20063;-77
2021/07/23 00:39:38;;;;;;;20.88;12.60;;;;;;;16.07;84.81;95656.97;5046303;28;20695;-78
2021/07/23 00:42:04;;;;;;;24.88;12.70;;;;;;;15.96;84.91;95650.34;5043387;28;20037;-77
2021/07/23 00:44:29;;;;;;;21.27;13.20;;;;;;;15.95;85.12;95659.41;5056324;28;20039;-77
2021/07/23 00:46:57;;;;;;;21.77;12.27;;;;;;;15.86;85.65;95648.72;5063364;28;20051;-77
2021/07/23 00:49:23;;;;;;;21.42;12.52;;;;;;;15.94;85.90;95652.50;5044901;28;20099;-77
2021/07/23 00:51:50;;;;;;;20.00;12.48;;;;;;;15.95;85.79;95643.47;5036472;28;20486;-77
2021/07/23 00:54:17;;;;;;;23.40;13.13;;;;;;;15.93;85.64;95642.97;5041127;28;20111;-77
2021/07/23 00:56:42;;;;;;;18.80;11.82;;;;;;;15.89;85.18;95637.50;5046014;28;20076;-76
2021/07/23 00:59:08;;;;;;;22.92;12.70;;;;;;;15.84;85.13;95647.44;5044973;28;20046;-77
2021/07/23 01:01:34;;;;;;;20.00;12.27;;;;;;;15.75;85.02;95650.75;5043759;28;20041;-76
2021/07/23 01:04:01;;;;;;;20.25;12.23;;;;;;;15.67;85.27;95654.09;5041670;28;20033;-78
2021/07/23 01:06:27;;;;;;;23.80;12.68;;;;;;;15.51;85.87;95656.28;5046984;28;20041;-77
2021/07/23 01:08:53;;;;;;;22.23;12.88;;;;;;;15.44;86.40;95649.84;5049046;28;20461;-78
2021/07/23 01:11:18;;;;;;;17.75;11.73;;;;;;;15.32;86.96;95648.47;5042593;28;20526;-77
2021/07/23 01:13:44;;;;;;;22.40;13.38;;;;;;;15.30;86.60;95640.03;5045795;28;20048;-77
2021/07/23 01:16:10;;;;;;;25.73;12.43;;;;;;;15.33;86.86;95649.25;5040705;28;20411;-77
2021/07/23 01:18:36;;;;;;;24.00;12.93;;;;;;;15.14;87.31;95646.69;5044440;28;20037;-77
2021/07/23 01:21:02;;;;;;;20.15;13.18;;;;;;;15.11;87.52;95647.28;5041406;28;20051;-77
2021/07/23 01:23:32;;;;;;;25.08;13.13;;;;;;;15.14;87.29;95646.69;5049455;28;20060;-77
2021/07/23 01:25:59;;;;;;;22.15;13.48;;;;;;;15.09;87.22;95644.16;5064885;28;20045;-76
2021/07/23 01:28:29;;;;;;;20.23;12.35;;;;;;;15.07;86.86;95642.59;5045130;28;20037;-77
2021/07/23 01:30:54;;;;;;;22.85;12.80;;;;;;;15.04;87.26;95637.88;5038336;28;20041;-76
2021/07/23 01:33:20;;;;;;;19.17;12.38;;;;;;;15.07;86.87;95637.28;5053265;28;20412;-76
2021/07/23 01:35:46;;;;;;;23.42;12.07;;;;;;;15.13;86.37;95639.81;5046367;28;20047;-78
2021/07/23 01:38:14;;;;;;;21.48;12.52;;;;;;;15.02;86.37;95637.38;5040166;28;20072;-78
2021/07/23 01:40:40;;;;;;;20.92;12.82;;;;;;;15.11;86.04;95644.66;5040252;28;20038;-78
2021/07/23 01:43:06;;;;;;;19.95;12.15;;;;;;;15.13;85.92;95645.13;5048443;28;20039;-77
2021/07/23 01:45:31;;;;;;;20.15;12.10;;;;;;;15.04;85.64;95637.88;5037177;28;20506;-77
2021/07/23 01:47:56;;;;;;;25.60;12.60;;;;;;;15.02;86.15;95640.03;5051090;28;20149;-76
2021/07/23 01:50:22;;;;;;;23.35;12.57;;;;;;;15.09;85.90;95639.63;5046196;28;20049;-76
2021/07/23 01:52:47;;;;;;;17.65;11.48;;;;;;;15.05;85.59;95642.09;5045387;28;20038;-77
2021/07/23 01:55:13;;;;;;;20.10;11.27;;;;;;;14.98;85.78;95631.09;5040455;28;20641;-76
2021/07/23 01:57:39;;;;;;;20.38;12.60;;;;;;;14.97;86.15;95634.84;5044597;28;20041;-77
2021/07/23 02:00:05;;;;;;;20.20;11.65;;;;;;;14.65;86.72;95627.72;5041197;28;20037;-78
2021/07/23 02:02:31;;;;;;;21.38;11.93;;;;;;;14.62;87.18;95634.38;5054940;28;20042;-76
2021/07/23 02:04:59;;;;;;;19.55;11.88;;;;;;;14.71;86.93;95627.34;5042849;28;20517;-76
2021/07/23 02:07:26;;;;;;;19.73;11.70;;;;;;;14.69;86.94;95621.53;5045177;28;20044;-76
2021/07/23 02:09:52;;;;;;;22.23;12.63;;;;;;;14.68;87.36;95627.94;5051398;28;20048;-76
2021/07/23 02:12:17;;;;;;;18.05;11.52;;;;;;;14.75;87.49;95626.75;5048628;28;20056;-76
2021/07/23 02:14:43;;;;;;;21.38;12.15;;;;;;;14.80;87.68;95621.38;5044528;28;20041;-77
2021/07/23 02:17:08;;;;;;;22.70;12.18;;;;;;;14.88;87.66;95623.34;5043395;28;20499;-76
2021/07/23 02:19:34;;;;;;;23.33;12.07;;;;;;;14.76;88.21;95620.41;5044938;28;20049;-78
2021/07/23 02:21:59;;;;;;;18.70;11.70;;;;;;;14.73;87.90;95622.53;5044670;28;20049;-76
2021/07/23 02:24:25;;;;;;;21.95;12.20;;;;;;;14.76;88.20;95631.00;5040450;28;20122;-78
2021/07/23 02:26:50;;;;;;;23.77;13.10;;;;;;;14.52;89.62;95629.25;5038769;28;20043;-77
2021/07/23 02:29:16;;;;;;;21.05;12.73;;;;;;;14.47;89.97;95624.81;5040469;28;20037;-77
2021/07/23 02:31:42;;;;;;;18.20;12.20;;;;;;;14.80;88.63;95626.69;5045692;28;20037;-78
2021/07/23 02:34:07;;;;;;;20.63;12.40;;;;;;;14.69;88.77;95626.84;5045133;28;20167;-76
2021/07/23 02:36:33;;;;;;;21.08;12.70;;;;;;;14.68;89.45;95624.50;5045110;28;20970;-77
2021/07/23 02:38:58;;;;;;;19.27;12.25;;;;;;;14.68;88.77;95620.00;5045019;28;20095;-78
2021/07/23 02:41:24;;;;;;;21.25;12.27;;;;;;;14.65;88.49;95625.88;5038575;28;20048;-76
2021/07/23 02:43:50;;;;;;;21.48;12.60;;;;;;;14.61;89.39;95635.44;5045552;28;20410;-76
2021/07/23 02:46:16;;;;;;;19.80;12.57;;;;;;;14.72;88.80;95636.88;5045579;28;20046;-76
2021/07/23 02:48:41;;;;;;;20.33;12.75;;;;;;;14.76;88.39;95631.00;5038526;28;20044;-76
2021/07/23 02:51:08;;;;;;;25.23;12.80;;;;;;;14.81;88.30;95628.22;5040549;28;20417;-78
2021/07/23 02:53:33;;;;;;;22.35;12.65;;;;;;;14.98;87.94;95633.72;5040587;28;20044;-78
2021/07/23 02:55:59;;;;;;;21.35;12.18;;;;;;;14.98;87.41;95628.44;5046033;28;20041;-77
2021/07/23 02:58:24;;;;;;;21.02;12.27;;;;;;;14.99;87.71;95634.53;5057528;28;20084;-76
2021/07/23 03:00:50;;;;;;;22.33;12.25;;;;;;;14.93;88.05;95620.59;5042040;28;20117;-77
2021/07/23 03:03:15;;;;;;;20.65;11.80;;;;;;;14.97;87.42;95621.59;5049375;28;20387;-76
2021/07/23 03:05:40;;;;;;;23.60;12.50;;;;;;;15.03;86.99;95615.09;5057098;28;20641;-76
2021/07/23 03:08:08;;;;;;;19.55;12.10;;;;;;;15.11;86.47;95618.13;5047531;28;20075;-77
2021/07/23 03:10:33;;;;;;;22.10;11.93;;;;;;;15.05;87.02;95623.53;5052214;28;20053;-76
2021/07/23 03:12:59;;;;;;;20.40;11.68;;;;;;;15.05;87.45;95623.53;5051062;28;20044;-77
2021/07/23 03:15:24;;;;;;;17.88;11.52;;;;;;;14.99;87.27;95619.41;5066753;28;20037;-76
2021/07/23 03:17:50;;;;;;;20.20;12.25;;;;;;;14.90;88.09;95621.19;5045508;28;20042;-76
2021/07/23 03:20:15;;;;;;;19.70;11.75;;;;;;;14.65;89.67;95620.59;5045471;28;20044;-76
2021/07/23 03:22:41;;;;;;;21.27;12.07;;;;;;;14.78;89.79;95620.88;5043452;28;20033;-77
2021/07/23 03:25:08;;;;;;;26.05;13.02;;;;;;;14.81;89.30;95612.34;5041765;28;20041;-76
2021/07/23 03:27:33;;;;;;;24.58;12.98;;;;;;;14.98;88.54;95627.66;5043839;28;20068;-76
2021/07/23 03:29:59;;;;;;;18.95;12.32;;;;;;;14.85;89.25;95624.69;5049217;28;20104;-77
2021/07/23 03:32:24;;;;;;;21.02;12.63;;;;;;;15.05;88.49;95617.44;5044862;28;20494;-77
2021/07/23 03:34:50;;;;;;;18.95;12.23;;;;;;;14.96;89.08;95614.72;5047210;28;20306;-77
2021/07/23 03:37:15;;;;;;;24.45;12.95;;;;;;;14.84;89.24;95622.34;5036490;28;20084;-78
2021/07/23 03:39:41;;;;;;;21.80;12.68;;;;;;;14.81;89.16;95622.94;5042737;28;20536;-77
2021/07/23 03:42:06;;;;;;;22.60;13.00;;;;;;;14.80;89.37;95616.09;5038178;28;20060;-78
2021/07/23 03:44:32;;;;;;;26.23;13.38;;;;;;;14.78;90.01;95618.22;5047644;28;20427;-77
2021/07/23 03:46:57;;;;;;;21.33;12.70;;;;;;;14.80;89.87;95616.09;5058445;28;20056;-77
2021/07/23 03:49:23;;;;;;;19.88;12.55;;;;;;;14.79;88.79;95609.22;5043837;28;20550;-78
2021/07/23 03:51:48;;;;;;;21.30;12.73;;;;;;;14.75;89.59;95618.81;5036673;28;20112;-78
2021/07/23 03:54:14;;;;;;;23.02;13.23;;;;;;;14.81;89.29;95607.03;5038172;28;20045;-78
2021/07/23 03:56:39;;;;;;;22.02;12.40;;;;;;;14.71;89.15;95608.81;5045044;28;20398;-78
2021/07/23 03:59:05;;;;;;;20.33;12.48;;;;;;;14.65;90.12;95604.69;5043441;28;20037;-77
2021/07/23 04:01:31;;;;;;;22.67;13.20;;;;;;;14.62;89.92;95610.56;5045317;28;20037;-76
2021/07/23 04:03:56;;;;;;;22.95;13.15;;;;;;;14.60;90.46;95604.75;5044166;28;20052;-76
2021/07/23 04:06:22;;;;;;;24.30;12.77;;;;;;;14.68;89.38;95603.31;5057636;28;20076;-76
2021/07/23 04:08:48;;;;;;;20.42;11.90;;;;;;;14.63;89.87;95609.47;5046132;28;20411;-75
2021/07/23 04:11:15;;;;;;;20.02;12.80;;;;;;;14.65;89.48;95599.41;5040278;28;20407;-78
2021/07/23 04:13:41;;;;;;;22.75;12.50;;;;;;;14.70;89.57;95612.53;5043468;28;20543;-77
2021/07/23 04:16:07;;;;;;;23.08;12.88;;;;;;;14.69;89.33;95610.94;5039682;28;20052;-78
2021/07/23 04:18:32;;;;;;;20.15;12.40;;;;;;;14.54;90.02;95613.88;5046246;28;20045;-78
2021/07/23 04:20:58;;;;;;;24.58;13.18;;;;;;;14.62;90.46;95612.44;5040924;28;20040;-76
2021/07/23 04:23:23;;;;;;;21.80;12.75;;;;;;;14.76;90.06;95609.81;5042726;28;20037;-78
2021/07/23 04:25:49;;;;;;;22.05;13.18;;;;;;;14.86;89.21;95614.91;5048821;28;20041;-76
2021/07/23 04:28:14;;;;;;;19.80;12.13;;;;;;;14.89;89.47;95619.63;5044564;28;20465;-76
2021/07/23 04:30:40;;;;;;;22.30;12.55;;;;;;;15.04;89.16;95621.97;5044986;28;20041;-76
2021/07/23 04:33:05;;;;;;;26.15;13.25;;;;;;;15.01;89.02;95611.16;5047155;28;20049;-76
2021/07/23 04:35:31;;;;;;;22.52;13.52;;;;;;;14.99;89.59;95614.13;5041597;28;20058;-76
2021/07/23 04:37:56;;;;;;;22.08;13.00;;;;;;;15.03;89.43;95614.31;5040882;28;20047;-76
2021/07/23 04:40:22;;;;;;;21.52;12.73;;;;;;;15.09;89.11;95625.63;5052910;28;20554;-76
2021/07/23 04:42:47;;;;;;;25.60;13.65;;;;;;;15.24;88.62;95625.28;5047483;28;20083;-76
2021/07/23 04:45:13;;;;;;;27.92;13.70;;;;;;;15.42;87.16;95626.25;5038190;28;20414;-76
2021/07/23 04:47:39;;;;;;;25.25;13.70;;;;;;;15.46;87.33;95621.13;5046223;28;20033;-77
2021/07/23 04:50:05;;;;;;;24.48;13.25;;;;;;;15.57;86.56;95625.94;5051689;28;20127;-76
2021/07/23 04:52:30;;;;;;;25.05;13.90;;;;;;;15.63;85.96;95629.28;5040773;28;20044;-76
2021/07/23 04:54:56;;;;;;;21.95;13.40;;;;;;;15.61;86.53;95628.00;5038938;28;20105;-77
2021/07/23 04:57:28;;;;;;;23.30;13.52;;;;;;;15.67;85.65;95622.28;5048723;28;20094;-76
2021/07/23 04:59:54;;;;;;;22.52;13.55;;;;;;;15.65;87.08;95627.09;5045995;28;20512;-77
2021/07/23 05:02:20;;;;;;;29.45;13.52;;;;;;;15.66;86.76;95631.34;5041465;28;20041;-77
2021/07/23 05:04:45;;;;;;;25.33;13.85;;;;;;;15.62;86.79;95630.34;5041961;28;20029;-77
2021/07/23 05:07:11;;;;;;;23.08;13.48;;;;;;;15.58;87.64;95624.06;5041679;28;20532;-76
2021/07/23 05:09:36;;;;;;;24.45;13.93;;;;;;;15.62;86.93;95625.06;5047598;28;20038;-78
2021/07/23 05:12:02;;;;;;;31.35;14.10;;;;;;;15.58;87.01;95624.06;5042694;28;20472;-76
2021/07/23 05:14:28;;;;;;;24.08;14.48;;;;;;;15.57;87.11;95622.50;5041266;28;20037;-77
2021/07/23 05:16:54;;;;;;;26.77;14.32;;;;;;;15.60;86.72;95624.53;5042469;28;20046;-77
2021/07/23 05:19:20;;;;;;;22.80;13.82;;;;;;;15.50;86.98;95627.41;5046836;28;20109;-77
2021/07/23 05:21:46;;;;;;;24.20;14.18;;;;;;;15.57;86.49;95625.16;5040135;28;20089;-76
2021/07/23 05:24:13;;;;;;;26.88;14.63;;;;;;;15.66;87.10;95625.22;5034439;28;20037;-77
2021/07/23 05:26:39;;;;;;;23.20;14.25;;;;;;;15.73;86.27;95621.09;5044650;28;20041;-76
2021/07/23 05:29:06;;;;;;;27.83;14.25;;;;;;;15.85;85.81;95619.81;5054373;28;20048;-76
2021/07/23 05:31:32;;;;;;;24.17;14.18;;;;;;;15.77;86.05;95616.75;5041326;28;20076;-76
2021/07/23 05:33:58;;;;;;;22.83;13.25;;;;;;;15.87;86.09;95614.97;5034417;28;20109;-77
2021/07/23 05:36:25;;;;;;;23.55;13.07;;;;;;;15.86;86.06;95613.41;5053214;28;20068;-77
2021/07/23 05:38:51;;;;;;;23.17;13.48;;;;;;;15.85;86.09;95622.47;5052972;28;20111;-76
2021/07/23 05:41:16;;;;;;;22.90;12.68;;;;;;;15.81;86.53;95632.09;5042399;28;20471;-76
2021/07/23 05:43:42;;;;;;;25.88;13.63;;;;;;;15.89;86.06;95624.22;5046229;28;20041;-76
2021/07/23 05:46:08;;;;;;;23.55;13.90;;;;;;;15.95;86.45;95622.25;5045164;28;20065;-77
2021/07/23 05:48:35;;;;;;;22.65;13.40;;;;;;;16.05;86.07;95622.00;5047124;28;20040;-76
2021/07/23 05:51:02;;;;;;;27.10;13.48;;;;;;;16.12;85.38;95616.28;5049294;28;20041;-77
2021/07/23 05:53:27;;;;;;;24.38;13.38;;;;;;;16.45;84.08;95623.97;5041499;28;20466;-77
2021/07/23 05:55:53;;;;;;;22.17;12.98;;;;;;;16.65;83.12;95622.69;5036002;28;20037;-77
2021/07/23 05:58:19;;;;;;;23.65;13.88;;;;;;;16.63;83.50;95624.84;5033514;28;20095;-76
2021/07/23 06:00:44;;;;;;;20.98;13.48;;;;;;;16.69;83.57;95617.53;5042928;28;20076;-77
2021/07/23 06:03:10;;;;;;;25.88;13.88;;;;;;;16.60;84.57;95618.25;5051072;28;20072;-77
2021/07/23 06:05:35;;;;;;;23.08;12.98;;;;;;;16.87;82.74;95627.16;5041595;28;20042;-76
2021/07/23 06:08:00;;;;;;;22.83;13.27;;;;;;;16.96;82.61;95616.59;5047746;28;20061;-76
2021/07/23 06:10:26;;;;;;;24.55;14.05;;;;;;;17.04;82.01;95618.50;5046494;28;20098;-77
2021/07/23 06:12:52;;;;;;;25.00;13.77;;;;;;;17.05;82.04;95620.06;5053420;28;20044;-76
2021/07/23 06:15:18;;;;;;;24.00;13.43;;;;;;;17.07;81.87;95628.50;5042854;28;20124;-77
2021/07/23 06:17:44;;;;;;;26.30;14.07;;;;;;;17.29;81.33;95618.88;5045303;28;20409;-77
2021/07/23 06:20:10;;;;;;;22.80;13.35;;;;;;;17.24;81.72;95626.97;5061073;28;20115;-77
2021/07/23 06:22:35;;;;;;;28.67;13.40;;;;;;;17.49;80.63;95622.81;5046233;28;20032;-76
2021/07/23 06:25:01;;;;;;;22.77;13.10;;;;;;;17.45;81.17;95627.97;5038268;28;20701;-77
2021/07/23 06:27:27;;;;;;;23.67;13.07;;;;;;;17.59;82.25;95632.41;5046726;28;20045;-79
2021/07/23 06:29:55;;;;;;;23.23;13.85;;;;;;;17.60;80.36;95639.28;5048932;28;20543;-77
2021/07/23 06:32:22;;;;;;;24.08;13.73;;;;;;;17.76;79.91;95632.41;5047375;28;20037;-77
2021/07/23 06:34:48;;;;;;;23.10;14.18;;;;;;;17.84;79.99;95628.19;5037486;28;20045;-77
2021/07/23 06:37:20;;;;;;;27.77;13.77;;;;;;;17.99;79.06;95630.41;5036999;28;20045;-77
2021/07/23 06:39:49;;;;;;;22.92;13.85;;;;;;;17.95;80.52;95628.69;5037630;28;20321;-77
2021/07/23 06:42:16;;;;;;;25.75;14.73;;;;;;;18.11;78.33;95632.44;5040546;28;20129;-78
2021/07/23 06:44:42;;;;;;;24.70;14.50;;;;;;;18.18;77.19;95632.75;5038463;28;20060;-75
2021/07/23 06:47:08;;;;;;;26.10;14.00;;;;;;;18.10;78.34;95630.88;5036603;28;20049;-77
2021/07/23 06:49:33;;;;;;;22.80;13.95;;;;;;;18.07;78.24;95638.72;5041711;28;20047;-77
2021/07/23 06:51:59;;;;;;;24.90;14.23;;;;;;;18.07;78.79;95636.81;5033695;28;20040;-77
2021/07/23 06:54:25;;;;;;;25.08;14.65;;;;;;;18.00;78.45;95636.50;5042772;28;20084;-77
2021/07/23 06:56:52;;;;;;;26.08;14.85;;;;;;;18.33;76.19;95622.69;5036113;28;20038;-76
2021/07/23 06:59:17;;;;;;;26.58;14.35;;;;;;;18.16;77.46;95624.28;5046927;28;20045;-76
2021/07/23 07:01:43;;;;;;;25.42;14.45;;;;;;;18.16;78.80;95624.28;5036887;28;20411;-78
2021/07/23 07:04:08;;;;;;;23.27;13.38;;;;;;;18.11;80.49;95626.34;5040593;28;20648;-77
2021/07/23 07:06:34;;;;;;;27.70;14.77;;;;;;;18.60;76.16;95626.09;5036532;28;20113;-77
2021/07/23 07:08:59;;;;;;;23.55;14.10;;;;;;;18.46;77.19;95627.06;5043731;28;20044;-76
2021/07/23 07:11:25;;;;;;;24.10;14.23;;;;;;;18.40;76.52;95623.00;5036375;28;20572;-77
2021/07/23 07:13:50;;;;;;;25.08;14.68;;;;;;;18.40;75.37;95622.22;5041157;28;20601;-79
2021/07/23 07:16:16;;;;;;;23.23;13.80;;;;;;;18.45;75.81;95617.50;5038574;28;20052;-80
2021/07/23 07:18:42;;;;;;;27.52;14.48;;;;;;;18.55;75.95;95620.91;5034813;28;20471;-78
2021/07/23 07:21:07;;;;;;;23.52;13.60;;;;;;;18.57;77.28;95621.41;5045155;28;20119;-80
2021/07/23 07:23:33;;;;;;;22.42;14.43;;;;;;;18.93;75.20;95614.88;5034264;28;20095;-80
2021/07/23 07:25:59;;;;;;;22.25;13.68;;;;;;;18.97;77.26;95621.16;5038742;28;20041;-80
2021/07/23 07:28:24;;;;;;;23.48;13.18;;;;;;;18.96;76.53;95616.91;5032886;28;20414;-79
2021/07/23 07:30:50;;;;;;;23.25;13.38;;;;;;;19.14;75.41;95613.06;5039176;28;20049;-79
2021/07/23 07:33:15;;;;;;;23.55;14.23;;;;;;;19.07;75.09;95612.78;5045177;28;20487;-77
2021/07/23 07:35:44;;;;;;;26.50;14.25;;;;;;;18.93;75.90;95605.00;5041325;28;20428;-76
2021/07/23 07:38:11;;;;;;;21.75;13.85;;;;;;;18.99;75.87;95616.25;5059401;28;20068;-78
2021/07/23 07:40:38;;;;;;;23.85;13.93;;;;;;;19.04;75.01;95608.88;5038923;28;20041;-78
2021/07/23 07:43:08;;;;;;;24.27;14.32;;;;;;;19.01;76.29;95609.50;5036239;28;20040;-78
2021/07/23 07:45:36;;;;;;;20.67;13.65;;;;;;;19.13;77.39;95616.81;5034982;28;20045;-78
2021/07/23 07:48:01;;;;;;;20.85;13.60;;;;;;;19.34;76.58;95610.78;5042600;28;20407;-78
2021/07/23 07:50:27;;;;;;;23.42;13.23;;;;;;;19.72;72.92;95610.69;5043109;28;20041;-80
2021/07/23 07:52:53;;;;;;;20.45;12.88;;;;;;;19.61;73.38;95614.03;5041100;28;20049;-82
2021/07/23 07:55:19;;;;;;;20.83;13.50;;;;;;;19.93;72.06;95614.47;5045740;28;20467;-80
2021/07/23 07:57:45;;;;;;;21.92;13.15;;;;;;;20.08;71.02;95611.19;5033866;28;20108;-78
2021/07/23 08:00:11;;;;;;;21.13;13.05;;;;;;;20.05;72.70;95607.28;5034545;28;20064;-79
2021/07/23 08:02:36;;;;;;;23.80;13.25;;;;;;;20.12;73.23;95606.75;5040915;28;20080;-80
2021/07/23 08:05:01;;;;;;;22.75;14.13;;;;;;;20.52;70.15;95608.13;5043893;28;20045;-79
2021/07/23 08:07:32;;;;;;;21.35;13.02;;;;;;;20.41;70.04;95599.72;5034029;28;20049;-79
2021/07/23 08:10:01;;;;;;;20.45;12.60;;;;;;;20.19;69.83;95595.56;5041976;28;20057;-80
2021/07/23 08:12:29;;;;;;;19.80;12.82;;;;;;;20.11;71.43;95615.88;5032163;28;20120;-79
2021/07/23 08:14:55;;;;;;;22.17;12.93;;;;;;;20.01;72.84;95603.72;5042636;28;20037;-81
2021/07/23 08:17:21;;;;;;;22.95;13.45;;;;;;;20.73;69.53;95608.06;5045541;28;20037;-80
2021/07/23 08:19:46;;;;;;;21.58;12.93;;;;;;;20.67;68.39;95604.03;5033304;28;20064;-79
2021/07/23 08:22:12;;;;;;;20.63;12.07;;;;;;;20.67;68.19;95604.03;5033817;28;20045;-78
2021/07/23 08:24:38;;;;;;;23.67;13.48;;;;;;;21.05;66.65;95601.06;5037087;28;20044;-79
2021/07/23 08:27:04;;;;;;;21.30;12.75;;;;;;;20.89;69.21;95592.16;5036067;28;20041;-79
2021/07/23 08:29:30;;;;;;;20.58;12.52;;;;;;;20.71;72.22;95599.59;5050449;28;20041;-77
2021/07/23 08:32:04;;;;;;;20.23;12.98;;;;;;;21.18;66.99;95595.72;5052281;28;20048;-77
2021/07/23 08:34:30;;;;;;;22.02;13.10;;;;;;;20.96;68.24;95594.28;5040161;28;20044;-80
2021/07/23 08:36:55;;;;;;;22.83;13.80;;;;;;;20.86;69.34;95600.84;5052020;28;20040;-78
2021/07/23 08:39:21;;;;;;;19.42;12.68;;;;;;;21.33;67.10;95595.03;5035148;28;20418;-78
2021/07/23 08:41:46;;;;;;;24.67;13.73;;;;;;;21.17;67.15;95588.81;5045450;28;20879;-78
2021/07/23 08:44:15;;;;;;;19.30;12.85;;;;;;;21.14;68.40;95589.50;5050026;28;20045;-78
2021/07/23 08:46:41;;;;;;;23.33;13.10;;;;;;;21.16;68.46;95588.03;5030705;28;20406;-78
2021/07/23 08:49:06;;;;;;;21.63;12.82;;;;;;;21.58;67.14;95593.13;5048081;28;20037;-78
2021/07/23 08:51:32;;;;;;;20.35;12.75;;;;;;;21.68;67.02;95583.06;5055773;28;20078;-78
2021/07/23 08:53:58;;;;;;;22.25;13.57;;;;;;;22.00;65.24;95586.66;5032047;28;20056;-79
2021/07/23 08:56:23;;;;;;;21.42;13.48;;;;;;;22.03;68.16;95595.91;5029573;28;20033;-77
2021/07/23 08:58:49;;;;;;;23.15;13.35;;;;;;;21.76;67.05;95590.19;5034650;28;20044;-80
2021/07/23 09:01:14;;;;;;;21.60;13.27;;;;;;;22.05;65.31;95589.09;5049232;28;20044;-81
2021/07/23 09:03:40;;;;;;;23.27;13.20;;;;;;;22.00;66.52;95597.38;5047541;28;20041;-78
2021/07/23 09:06:16;;;;;;;18.90;12.82;;;;;;;21.82;64.84;95596.09;5047423;28;20044;-77
2021/07/23 09:08:50;;;;;;;21.42;13.15;;;;;;;21.82;65.49;95591.50;5038041;28;20045;-82
2021/07/23 09:11:26;;;;;;;24.10;13.23;;;;;;;22.03;65.09;95590.56;5032494;28;20094;-79
2021/07/23 09:13:51;;;;;;;22.70;14.38;;;;;;;21.90;66.10;95585.22;5029773;28;20128;-79
2021/07/23 09:16:24;;;;;;;26.70;13.68;;;;;;;21.94;63.04;95583.44;5034288;28;20115;-81
2021/07/23 09:19:07;;;;;;;20.45;11.90;;;;;;;22.21;62.15;95591.81;5036031;28;20040;-77
2021/07/23 09:21:37;;;;;;;22.17;12.60;;;;;;;22.36;63.19;95581.50;5038861;28;20044;-80
2021/07/23 09:24:02;;;;;;;22.73;12.07;;;;;;;22.38;62.11;95584.59;5039754;28;20048;-81
2021/07/23 09:26:40;;;;;;;20.13;11.73;;;;;;;22.94;57.39;95584.47;5033245;28;20151;-82
2021/07/23 09:29:06;;;;;;;20.75;12.27;;;;;;;23.02;57.73;95586.19;5038552;28;20041;-82
2021/07/23 09:31:33;;;;;;;19.10;12.15;;;;;;;22.76;60.10;95570.63;5035283;28;20053;-80
2021/07/23 09:33:59;;;;;;;18.75;12.65;;;;;;;22.60;60.07;95576.00;5037155;28;20116;-77
2021/07/23 09:36:26;;;;;;;20.42;12.05;;;;;;;22.54;60.97;95577.38;5034152;28;20044;-77
2021/07/23 09:39:01;;;;;;;19.52;12.48;;;;;;;22.70;57.99;95568.53;5046976;28;20045;-78
2021/07/23 09:41:27;;;;;;;18.10;12.10;;;;;;;23.00;59.38;95569.66;5045556;28;20041;-80
2021/07/23 09:44:08;;;;;;;19.75;11.55;;;;;;;23.21;58.82;95565.94;5037203;28;20064;-79
2021/07/23 09:46:44;;;;;;;21.70;13.20;;;;;;;23.26;56.27;95568.38;5040145;28;20115;-77
2021/07/23 09:49:19;;;;;;;20.95;11.95;;;;;;;23.11;58.54;95561.09;5048311;28;20120;-78
2021/07/23 09:51:47;;;;;;;21.83;12.40;;;;;;;23.02;58.13;95559.34;5044939;28;20076;-79
2021/07/23 09:54:13;;;;;;;20.77;12.07;;;;;;;23.30;56.24;95553.13;5036115;28;20050;-78
2021/07/23 09:56:38;;;;;;;22.48;12.63;;;;;;;23.49;57.85;95554.28;5034705;28;20041;-77
2021/07/23 09:59:12;;;;;;;19.95;12.10;;;;;;;23.75;55.21;95550.16;5042978;28;20049;-78
2021/07/23 10:01:41;;;;;;;32.70;12.35;;;;;;;23.88;54.67;95548.94;5035931;28;20037;-79
2021/07/23 10:04:19;;;;;;;21.45;13.15;;;;;;;23.77;56.77;95547.94;5044431;28;20407;-78
2021/07/23 10:07:05;;;;;;;20.48;12.70;;;;;;;23.74;56.11;95543.25;5042112;28;20052;-76
2021/07/23 10:09:33;;;;;;;21.23;12.23;;;;;;;23.86;55.70;95545.78;5040982;28;20516;-79
2021/07/23 10:11:59;;;;;;;21.33;12.82;;;;;;;24.25;55.31;95551.19;5049116;28;20037;-80
2021/07/23 10:14:28;;;;;;;33.03;12.88;;;;;;;24.67;53.55;95546.91;5043150;28;20060;-80
2021/07/23 10:16:53;;;;;;;18.80;12.02;;;;;;;24.86;52.70;95543.38;5037958;28;20558;-77
2021/07/23 10:19:22;;;;;;;20.25;12.52;;;;;;;24.86;52.67;95540.69;5040922;28;20043;-75
2021/07/23 10:21:53;;;;;;;18.08;11.65;;;;;;;25.07;51.03;95535.59;5040409;28;20099;-80
2021/07/23 10:24:19;;;;;;;16.30;11.48;;;;;;;25.28;53.06;95526.28;5047441;28;20034;-78
2021/07/23 10:26:45;;;;;;;21.00;12.50;;;;;;;25.74;50.03;95531.50;5040322;28;20072;-78
2021/07/23 10:29:11;;;;;;;19.13;11.88;;;;;;;25.72;48.82;95525.72;5040624;28;20192;-79
2021/07/23 10:31:40;;;;;;;21.17;12.48;;;;;;;26.03;50.13;95522.97;5034621;28;20115;-80
2021/07/23 10:34:06;;;;;;;18.05;11.88;;;;;;;26.25;47.15;95524.00;5050332;28;20056;-82
2021/07/23 10:36:32;;;;;;;17.52;11.85;;;;;;;26.39;47.86;95517.94;5039837;28;20125;-78
2021/07/23 10:39:10;;;;;;;19.75;12.93;;;;;;;26.86;45.79;95512.97;5040747;28;20553;-77
2021/07/23 10:41:59;;;;;;;17.45;11.98;;;;;;;26.76;45.75;95515.19;5036649;28;20033;-78
2021/07/23 10:44:28;;;;;;;19.13;12.38;;;;;;;26.60;44.72;95514.66;5047883;28;20106;-78
2021/07/23 10:46:58;;;;;;;19.65;11.60;;;;;;;27.30;44.87;95509.38;5045670;28;20404;-80
2021/07/23 10:49:26;;;;;;;21.02;12.43;;;;;;;27.29;44.04;95511.28;5044791;28;20187;-78
2021/07/23 10:51:53;;;;;;;21.58;13.10;;;;;;;27.56;43.13;95510.31;5041208;28;20493;-79
2021/07/23 10:54:24;;;;;;;17.65;11.77;;;;;;;28.12;41.69;95506.25;5043015;28;20045;-78
2021/07/23 10:57:01;;;;;;;17.40;10.90;;;;;;;28.07;41.40;95500.44;5045823;28;20097;-81
2021/07/23 10:59:39;;;;;;;18.45;11.60;;;;;;;28.56;41.97;95498.16;5034639;28;20112;-79
2021/07/23 11:02:10;;;;;;;18.50;12.15;;;;;;;27.87;41.06;95491.84;5030808;28;20049;-78
2021/07/23 11:04:38;;;;;;;16.05;11.38;;;;;;;27.90;42.35;95485.69;5047369;28;20040;-79
2021/07/23 11:07:05;;;;;;;18.45;11.68;;;;;;;29.30;37.84;95484.97;5041999;28;20037;-84
2021/07/23 11:09:31;;;;;;;16.23;11.82;;;;;;;29.22;37.87;95484.16;5035967;28;20042;-86
2021/07/23 11:12:12;;;;;;;18.95;12.23;;;;;;;29.01;38.80;95480.34;5041787;28;20049;-85
2021/07/23 11:14:38;;;;;;;17.92;11.93;;;;;;;28.89;38.83;95482.69;5033168;28;20121;-79